Time;durP1;ratioP1;P1;durP2;ratioP2;P2;SDS_P1;SDS_P2;PMS_P1;PMS_P2;Temp;Humidity;BMP_temperature;BMP_pressure;BME280_temperature;BME280_humidity;BME280_pressure;Samples;Min_cycle;Max_cycle;Signal;HPM_P1;HPM_P2
2022/03/14 00:01:58;;;;;;;147.60;58.87;;;;;;;;;;4387573;32;20242;-50
2022/03/14 00:04:23;;;;;;;121.43;53.87;;;;;;;;;;4386523;32;20240;-51
2022/03/14 00:06:49;;;;;;;117.03;50.70;;;;;;;;;;4387268;32;20331;-51
2022/03/14 00:09:17;;;;;;;117.13;48.60;;;;;;;;;;4389818;32;20257;-51
2022/03/14 00:11:43;;;;;;;92.83;46.37;;;;;;;;;;4387579;32;20309;-51
2022/03/14 00:14:09;;;;;;;119.80;54.87;;;;;;;;;;4386986;32;20746;-50
2022/03/14 00:16:45;;;;;;;122.07;54.77;;;;;;;;;;4386703;32;20264;-52
2022/03/14 00:19:13;;;;;;;100.27;47.33;;;;;;;;;;4386756;32;20261;-51
2022/03/14 00:21:39;;;;;;;113.97;49.53;;;;;;;;;;4387339;32;20226;-51
2022/03/14 00:24:08;;;;;;;109.70;46.13;;;;;;;;;;4386363;32;20240;-49
2022/03/14 00:26:34;;;;;;;54.77;25.10;;;;;;;;;;4386497;32;20392;-51
2022/03/14 00:29:00;;;;;;;45.87;18.27;;;;;;;;;;4385740;32;20303;-52
2022/03/14 00:31:26;;;;;;;35.53;17.20;;;;;;;;;;4387059;32;20210;-51
2022/03/14 00:33:52;;;;;;;44.30;18.73;;;;;;;;;;4385630;32;20547;-52
2022/03/14 00:36:19;;;;;;;74.87;26.83;;;;;;;;;;4372537;32;20249;-51
2022/03/14 00:38:45;;;;;;;94.20;30.93;;;;;;;;;;4371959;32;20294;-50
2022/03/14 00:41:12;;;;;;;70.30;28.83;;;;;;;;;;4386971;32;20313;-52
2022/03/14 00:43:39;;;;;;;85.73;29.47;;;;;;;;;;4386139;32;20298;-52
2022/03/14 00:46:05;;;;;;;74.33;25.83;;;;;;;;;;4386431;32;20316;-52
2022/03/14 00:48:34;;;;;;;62.00;23.77;;;;;;;;;;4386094;32;20252;-52
2022/03/14 00:51:01;;;;;;;55.50;21.50;;;;;;;;;;4386616;32;20222;-50
2022/03/14 00:53:27;;;;;;;41.57;18.20;;;;;;;;;;4385334;32;20452;-51
2022/03/14 00:55:52;;;;;;;64.33;25.80;;;;;;;;;;4386747;32;20435;-51
2022/03/14 00:58:18;;;;;;;58.73;26.00;;;;;;;;;;4385318;32;20237;-51
2022/03/14 01:00:44;;;;;;;57.03;23.23;;;;;;;;;;4386427;32;20253;-50
2022/03/14 01:03:09;;;;;;;45.60;19.87;;;;;;;;;;4386269;32;20221;-50
2022/03/14 01:05:35;;;;;;;56.70;23.57;;;;;;;;;;4387039;32;20632;-50
2022/03/14 01:08:00;;;;;;;51.90;21.97;;;;;;;;;;4385239;32;20226;-52
2022/03/14 01:10:26;;;;;;;66.90;25.93;;;;;;;;;;4372142;32;20249;-51
2022/03/14 01:12:51;;;;;;;56.00;24.67;;;;;;;;;;4385381;32;20596;-51
2022/03/14 01:15:17;;;;;;;53.03;22.03;;;;;;;;;;4372730;32;20310;-52
2022/03/14 01:17:44;;;;;;;56.83;24.17;;;;;;;;;;4384225;32;20341;-51
2022/03/14 01:20:10;;;;;;;56.80;23.87;;;;;;;;;;4374192;32;20673;-52
2022/03/14 01:22:36;;;;;;;43.43;20.57;;;;;;;;;;4371926;32;20273;-51
2022/03/14 01:25:04;;;;;;;53.70;23.93;;;;;;;;;;4385825;32;20273;-50
2022/03/14 01:27:29;;;;;;;42.13;19.00;;;;;;;;;;4384371;32;20459;-50
2022/03/14 01:29:55;;;;;;;47.10;18.93;;;;;;;;;;4371500;32;20281;-51
2022/03/14 01:32:21;;;;;;;45.87;19.67;;;;;;;;;;4371275;32;20317;-51
2022/03/14 01:34:46;;;;;;;43.90;19.57;;;;;;;;;;4385635;32;20280;-52
2022/03/14 01:37:12;;;;;;;43.77;18.90;;;;;;;;;;4386273;32;20305;-51
2022/03/14 01:39:38;;;;;;;28.03;14.20;;;;;;;;;;4371691;32;20245;-50
2022/03/14 01:42:03;;;;;;;27.63;11.83;;;;;;;;;;4386355;32;20264;-50
2022/03/14 01:44:29;;;;;;;33.37;14.33;;;;;;;;;;4385311;32;20554;-51
2022/03/14 01:46:55;;;;;;;21.80;10.40;;;;;;;;;;4386033;32;20226;-50
2022/03/14 01:49:21;;;;;;;32.03;13.27;;;;;;;;;;4385721;32;20288;-51
2022/03/14 01:51:47;;;;;;;40.43;15.90;;;;;;;;;;4357835;32;20241;-51
2022/03/14 01:54:12;;;;;;;60.67;22.37;;;;;;;;;;4376500;32;20284;-51
2022/03/14 01:56:39;;;;;;;55.40;21.07;;;;;;;;;;4386020;32;20229;-51
2022/03/14 01:59:09;;;;;;;43.13;18.20;;;;;;;;;;4374217;32;20227;-50
2022/03/14 02:01:34;;;;;;;41.50;16.70;;;;;;;;;;4379229;32;20325;-50
2022/03/14 02:04:00;;;;;;;54.33;18.13;;;;;;;;;;4371829;32;20892;-52
2022/03/14 02:06:28;;;;;;;48.20;16.40;;;;;;;;;;4384976;32;20229;-51
2022/03/14 02:08:55;;;;;;;42.60;17.60;;;;;;;;;;4374633;32;20249;-51
2022/03/14 02:11:20;;;;;;;41.63;17.53;;;;;;;;;;4370363;32;20239;-51
2022/03/14 02:13:46;;;;;;;52.90;20.27;;;;;;;;;;4363149;32;20295;-51
2022/03/14 02:16:12;;;;;;;48.63;22.07;;;;;;;;;;4384236;32;20240;-51
2022/03/14 02:18:38;;;;;;;47.07;20.63;;;;;;;;;;4382935;32;20213;-50
2022/03/14 02:21:05;;;;;;;43.57;19.20;;;;;;;;;;4370290;32;20299;-51
2022/03/14 02:23:31;;;;;;;46.00;20.23;;;;;;;;;;4377755;32;20326;-51
2022/03/14 02:25:56;;;;;;;43.87;20.23;;;;;;;;;;4370985;32;20354;-50
2022/03/14 02:28:23;;;;;;;44.83;21.13;;;;;;;;;;4364786;32;20328;-50
2022/03/14 02:30:52;;;;;;;73.47;31.50;;;;;;;;;;4356495;32;20230;-50
2022/03/14 02:33:19;;;;;;;80.07;38.33;;;;;;;;;;4374249;32;20221;-52
2022/03/14 02:35:46;;;;;;;71.33;30.70;;;;;;;;;;4385938;32;20195;-52
2022/03/14 02:38:19;;;;;;;81.67;36.47;;;;;;;;;;4379847;32;20245;-50
2022/03/14 02:40:47;;;;;;;61.30;28.17;;;;;;;;;;4370349;32;20231;-51
2022/03/14 02:43:17;;;;;;;50.53;22.63;;;;;;;;;;4379139;32;20601;-50
2022/03/14 02:45:43;;;;;;;45.60;20.00;;;;;;;;;;4370789;32;20319;-51
2022/03/14 02:48:10;;;;;;;43.23;20.40;;;;;;;;;;4370457;32;20230;-51
2022/03/14 02:50:38;;;;;;;48.23;22.17;;;;;;;;;;4376400;32;20577;-52
2022/03/14 02:53:04;;;;;;;59.23;23.80;;;;;;;;;;4384794;32;20267;-51
2022/03/14 02:55:29;;;;;;;81.73;39.60;;;;;;;;;;4385391;32;20282;-51
2022/03/14 02:57:55;;;;;;;65.43;34.90;;;;;;;;;;4385054;32;20313;-51
2022/03/14 03:00:20;;;;;;;73.37;27.40;;;;;;;;;;4384416;32;20654;-51
2022/03/14 03:02:46;;;;;;;55.40;28.80;;;;;;;;;;4373512;32;20364;-51
2022/03/14 03:05:11;;;;;;;72.97;33.43;;;;;;;;;;4388090;32;20323;-50
2022/03/14 03:07:38;;;;;;;78.10;35.73;;;;;;;;;;4372539;32;20261;-50
2022/03/14 03:10:04;;;;;;;68.30;32.80;;;;;;;;;;4369985;32;20230;-50
2022/03/14 03:12:32;;;;;;;80.70;34.03;;;;;;;;;;4386071;32;20244;-50
2022/03/14 03:14:58;;;;;;;82.63;35.93;;;;;;;;;;4373224;32;20512;-50
2022/03/14 03:17:24;;;;;;;69.37;31.23;;;;;;;;;;4386749;32;20360;-50
2022/03/14 03:19:50;;;;;;;74.20;30.67;;;;;;;;;;4378813;32;20209;-50
2022/03/14 03:22:16;;;;;;;70.27;34.00;;;;;;;;;;4373666;32;20229;-49
2022/03/14 03:24:41;;;;;;;63.33;31.30;;;;;;;;;;4373036;32;20288;-49
2022/03/14 03:27:07;;;;;;;68.33;28.13;;;;;;;;;;4358764;32;20223;-51
2022/03/14 03:29:32;;;;;;;67.73;31.50;;;;;;;;;;4385105;32;20293;-52
2022/03/14 03:31:57;;;;;;;58.40;31.13;;;;;;;;;;4387640;32;20252;-51
2022/03/14 03:34:23;;;;;;;53.57;27.07;;;;;;;;;;4386222;32;20704;-51
2022/03/14 03:36:48;;;;;;;51.13;25.20;;;;;;;;;;4387936;32;20384;-50
2022/03/14 03:39:14;;;;;;;65.40;27.90;;;;;;;;;;4375781;32;20253;-51
2022/03/14 03:41:39;;;;;;;52.60;24.30;;;;;;;;;;4377234;32;20245;-52
2022/03/14 03:44:06;;;;;;;52.80;25.43;;;;;;;;;;4376386;32;20218;-51
2022/03/14 03:46:31;;;;;;;51.97;25.17;;;;;;;;;;4358935;32;20254;-51
2022/03/14 03:48:57;;;;;;;63.07;26.47;;;;;;;;;;4358878;32;20308;-49
2022/03/14 03:51:22;;;;;;;69.53;33.93;;;;;;;;;;4383151;32;20213;-51
2022/03/14 03:53:48;;;;;;;60.17;30.90;;;;;;;;;;4386835;32;20280;-50
2022/03/14 03:56:13;;;;;;;91.13;42.47;;;;;;;;;;4386793;32;20274;-50
2022/03/14 03:58:39;;;;;;;92.30;43.30;;;;;;;;;;4379108;32;20210;-50
2022/03/14 04:01:05;;;;;;;83.73;41.43;;;;;;;;;;4364803;32;20328;-50
2022/03/14 04:03:30;;;;;;;70.40;35.03;;;;;;;;;;4379750;32;20264;-50
2022/03/14 04:05:56;;;;;;;69.27;32.23;;;;;;;;;;4379953;32;20605;-49
2022/03/14 04:08:21;;;;;;;56.40;29.30;;;;;;;;;;4380629;32;20218;-51
2022/03/14 04:10:53;;;;;;;61.97;30.23;;;;;;;;;;4373959;32;20339;-51
2022/03/14 04:13:19;;;;;;;55.80;29.03;;;;;;;;;;4379258;32;20222;-50
2022/03/14 04:15:51;;;;;;;57.20;27.00;;;;;;;;;;4376592;32;20744;-51
2022/03/14 04:18:23;;;;;;;53.40;27.40;;;;;;;;;;4381639;32;20270;-51
2022/03/14 04:20:49;;;;;;;51.40;25.23;;;;;;;;;;4386934;32;20309;-49
2022/03/14 04:23:17;;;;;;;47.17;27.37;;;;;;;;;;4386563;32;20249;-50
2022/03/14 04:25:43;;;;;;;66.27;28.10;;;;;;;;;;4387484;32;20618;-50
2022/03/14 04:28:09;;;;;;;60.97;28.73;;;;;;;;;;4367704;32;20364;-50
2022/03/14 04:30:35;;;;;;;59.13;28.50;;;;;;;;;;4377614;32;20459;-50
2022/03/14 04:33:00;;;;;;;42.90;23.77;;;;;;;;;;4369184;32;20289;-49
2022/03/14 04:35:26;;;;;;;42.53;23.20;;;;;;;;;;4371514;32;20308;-51
2022/03/14 04:37:51;;;;;;;56.43;24.70;;;;;;;;;;4358112;32;20325;-51
2022/03/14 04:40:17;;;;;;;50.47;25.00;;;;;;;;;;4386098;32;20381;-51
2022/03/14 04:42:43;;;;;;;54.67;28.80;;;;;;;;;;4383821;32;20347;-51
2022/03/14 04:45:09;;;;;;;55.30;29.03;;;;;;;;;;4371641;32;20295;-51
2022/03/14 04:47:35;;;;;;;53.17;30.17;;;;;;;;;;4357681;32;20332;-51
2022/03/14 04:50:02;;;;;;;56.60;29.43;;;;;;;;;;4381149;32;20210;-50
2022/03/14 04:52:28;;;;;;;62.70;32.00;;;;;;;;;;4386499;32;20308;-50
2022/03/14 04:54:54;;;;;;;64.67;28.83;;;;;;;;;;4386576;32;20296;-52
2022/03/14 04:57:19;;;;;;;42.00;22.87;;;;;;;;;;4386252;32;20619;-51
2022/03/14 04:59:45;;;;;;;44.73;22.47;;;;;;;;;;4372819;32;20362;-51
2022/03/14 05:02:10;;;;;;;50.50;26.03;;;;;;;;;;4386804;32;20326;-51
2022/03/14 05:04:37;;;;;;;43.40;21.43;;;;;;;;;;4385972;32;20282;-51
2022/03/14 05:07:02;;;;;;;39.87;20.97;;;;;;;;;;4372509;32;20678;-51
2022/03/14 05:09:28;;;;;;;50.03;26.27;;;;;;;;;;4371519;32;20218;-51
2022/03/14 05:11:53;;;;;;;49.80;23.87;;;;;;;;;;4386242;32;20320;-50
2022/03/14 05:14:19;;;;;;;78.77;38.83;;;;;;;;;;4374071;32;20278;-50
2022/03/14 05:16:47;;;;;;;82.63;37.63;;;;;;;;;;4378567;32;20241;-51
2022/03/14 05:19:13;;;;;;;65.93;32.10;;;;;;;;;;4379954;32;20412;-50
2022/03/14 05:21:38;;;;;;;82.97;32.10;;;;;;;;;;4371338;32;20651;-50
2022/03/14 05:24:05;;;;;;;93.50;35.57;;;;;;;;;;4357313;32;20249;-51
2022/03/14 05:26:31;;;;;;;72.77;34.57;;;;;;;;;;4382234;32;20237;-51
2022/03/14 05:28:57;;;;;;;77.57;37.13;;;;;;;;;;4385852;32;20286;-51
2022/03/14 05:31:23;;;;;;;69.97;36.97;;;;;;;;;;4372321;32;20341;-51
2022/03/14 05:33:48;;;;;;;62.03;35.03;;;;;;;;;;4386151;32;20597;-50
2022/03/14 05:36:14;;;;;;;73.07;39.43;;;;;;;;;;4371841;32;20233;-50
2022/03/14 05:38:40;;;;;;;75.10;34.43;;;;;;;;;;4385645;32;20341;-50
2022/03/14 05:41:05;;;;;;;59.67;26.90;;;;;;;;;;4385454;32;20779;-50
2022/03/14 05:43:36;;;;;;;69.90;29.87;;;;;;;;;;4384917;32;20253;-51
2022/03/14 05:46:06;;;;;;;74.40;33.20;;;;;;;;;;4384775;32;20276;-51
2022/03/14 05:48:35;;;;;;;76.47;35.43;;;;;;;;;;4385255;32;20210;-50
2022/03/14 05:51:03;;;;;;;48.27;25.30;;;;;;;;;;4383116;32;20214;-51
2022/03/14 05:53:30;;;;;;;44.83;24.67;;;;;;;;;;4385355;32;20269;-51
2022/03/14 05:55:56;;;;;;;52.63;23.37;;;;;;;;;;4385294;32;20217;-51
2022/03/14 05:58:22;;;;;;;56.87;26.80;;;;;;;;;;4385221;32;20584;-52
2022/03/14 06:00:48;;;;;;;72.47;36.10;;;;;;;;;;4370953;32;20210;-50
2022/03/14 06:03:15;;;;;;;69.80;34.53;;;;;;;;;;4379580;32;20643;-50
2022/03/14 06:05:40;;;;;;;58.80;32.97;;;;;;;;;;4365197;32;20606;-51
2022/03/14 06:08:06;;;;;;;63.07;32.63;;;;;;;;;;4376562;32;20234;-51
2022/03/14 06:10:32;;;;;;;82.50;39.87;;;;;;;;;;4385226;32;20337;-51
2022/03/14 06:12:59;;;;;;;82.27;43.13;;;;;;;;;;4367050;32;20234;-53
2022/03/14 06:15:24;;;;;;;105.17;50.13;;;;;;;;;;4372701;32;25394;-53
2022/03/14 06:17:50;;;;;;;93.93;47.33;;;;;;;;;;4381649;32;20279;-51
2022/03/14 06:20:15;;;;;;;111.23;52.60;;;;;;;;;;4382078;32;20584;-50
2022/03/14 06:22:47;;;;;;;138.93;61.47;;;;;;;;;;4371276;32;20345;-50
2022/03/14 06:25:15;;;;;;;70.23;36.97;;;;;;;;;;4371170;32;20383;-51
2022/03/14 06:27:40;;;;;;;78.40;36.47;;;;;;;;;;4374876;32;20283;-50
2022/03/14 06:30:07;;;;;;;42.63;23.23;;;;;;;;;;4385294;32;20349;-50
2022/03/14 06:32:38;;;;;;;65.17;33.30;;;;;;;;;;4377246;32;20327;-52
2022/03/14 06:35:05;;;;;;;91.50;51.80;;;;;;;;;;4371349;32;20736;-50
2022/03/14 06:37:30;;;;;;;100.43;53.83;;;;;;;;;;4372266;32;20418;-52
2022/03/14 06:39:56;;;;;;;78.73;38.77;;;;;;;;;;4384370;32;20214;-51
2022/03/14 06:42:23;;;;;;;74.97;37.70;;;;;;;;;;4382149;32;20313;-51
2022/03/14 06:44:50;;;;;;;72.57;37.87;;;;;;;;;;4374658;32;20207;-51
2022/03/14 06:47:21;;;;;;;84.43;41.50;;;;;;;;;;4380606;32;20288;-49
2022/03/14 06:49:47;;;;;;;85.67;42.77;;;;;;;;;;4391924;32;20340;-49
2022/03/14 06:52:13;;;;;;;66.13;36.83;;;;;;;;;;4384474;32;20258;-51
2022/03/14 06:54:39;;;;;;;83.03;37.97;;;;;;;;;;4389583;32;20198;-49
2022/03/14 06:57:09;;;;;;;83.20;41.90;;;;;;;;;;4384810;32;20413;-51
2022/03/14 06:59:36;;;;;;;84.70;43.43;;;;;;;;;;4388138;32;20286;-49
2022/03/14 07:02:03;;;;;;;77.07;42.00;;;;;;;;;;4385281;32;20265;-49
2022/03/14 07:04:29;;;;;;;108.87;46.83;;;;;;;;;;4378675;32;20774;-51
2022/03/14 07:06:55;;;;;;;88.00;44.17;;;;;;;;;;4381196;32;20229;-52
2022/03/14 07:09:21;;;;;;;98.13;49.83;;;;;;;;;;4380938;32;20346;-51
2022/03/14 07:11:51;;;;;;;86.03;43.60;;;;;;;;;;4379818;32;20304;-51
2022/03/14 07:14:20;;;;;;;79.30;40.33;;;;;;;;;;4374053;32;20324;-51
2022/03/14 07:16:46;;;;;;;94.57;47.30;;;;;;;;;;4371866;32;20237;-51
2022/03/14 07:19:12;;;;;;;86.93;42.73;;;;;;;;;;4377480;32;20218;-50
2022/03/14 07:21:38;;;;;;;82.20;41.20;;;;;;;;;;4373683;32;20356;-50
2022/03/14 07:24:04;;;;;;;84.50;39.93;;;;;;;;;;4380863;32;20265;-52
2022/03/14 07:26:29;;;;;;;146.90;71.27;;;;;;;;;;4374152;32;20308;-50
2022/03/14 07:28:55;;;;;;;88.33;45.53;;;;;;;;;;4380240;32;20301;-49
2022/03/14 07:31:21;;;;;;;61.47;35.47;;;;;;;;;;4372291;32;20376;-50
2022/03/14 07:33:48;;;;;;;61.00;34.37;;;;;;;;;;4388573;32;20265;-52
2022/03/14 07:36:14;;;;;;;74.77;39.70;;;;;;;;;;4386810;32;20272;-50
2022/03/14 07:38:39;;;;;;;69.63;36.60;;;;;;;;;;4377458;32;20323;-50
2022/03/14 07:41:05;;;;;;;61.87;28.47;;;;;;;;;;4386017;32;20289;-49
2022/03/14 07:43:30;;;;;;;51.83;23.87;;;;;;;;;;4387427;32;20218;-51
2022/03/14 07:45:56;;;;;;;51.03;23.43;;;;;;;;;;4374697;32;20477;-51
2022/03/14 07:48:22;;;;;;;144.27;54.93;;;;;;;;;;4373263;32;20367;-50
2022/03/14 07:50:47;;;;;;;87.47;41.50;;;;;;;;;;4381094;32;20309;-51
2022/03/14 07:53:13;;;;;;;200.03;82.63;;;;;;;;;;4387292;32;20284;-50
2022/03/14 07:55:39;;;;;;;41.67;24.60;;;;;;;;;;4386913;32;20242;-49
2022/03/14 07:58:04;;;;;;;68.07;36.13;;;;;;;;;;4373212;32;20698;-49
2022/03/14 08:00:30;;;;;;;43.57;24.50;;;;;;;;;;4369336;32;20355;-51
2022/03/14 08:02:55;;;;;;;63.93;38.47;;;;;;;;;;4377665;32;20261;-49
2022/03/14 08:05:24;;;;;;;55.40;28.60;;;;;;;;;;4388133;32;20284;-53
2022/03/14 08:07:51;;;;;;;68.97;34.20;;;;;;;;;;4385129;32;20666;-51
2022/03/14 08:10:18;;;;;;;60.33;31.17;;;;;;;;;;4386908;32;20317;-48
2022/03/14 08:12:55;;;;;;;66.40;31.37;;;;;;;;;;4387507;32;20308;-50
2022/03/14 08:15:26;;;;;;;43.50;24.23;;;;;;;;;;4387876;32;20210;-52
2022/03/14 08:17:52;;;;;;;40.87;21.80;;;;;;;;;;4383748;32;20637;-50
2022/03/14 08:20:19;;;;;;;38.80;21.33;;;;;;;;;;4375441;32;20229;-50
2022/03/14 08:22:45;;;;;;;48.30;21.30;;;;;;;;;;4384866;32;20638;-50
2022/03/14 08:25:11;;;;;;;41.83;22.10;;;;;;;;;;4372294;32;20374;-51
2022/03/14 08:27:37;;;;;;;32.47;20.93;;;;;;;;;;4384581;32;20664;-51
2022/03/14 08:30:04;;;;;;;57.67;28.90;;;;;;;;;;4366486;32;20361;-50
2022/03/14 08:32:31;;;;;;;30.93;18.90;;;;;;;;;;4382411;32;20280;-52
2022/03/14 08:34:57;;;;;;;38.07;21.47;;;;;;;;;;4372429;32;20245;-52
2022/03/14 08:37:23;;;;;;;57.83;24.27;;;;;;;;;;4377729;32;20355;-50
2022/03/14 08:39:49;;;;;;;47.67;22.97;;;;;;;;;;4379090;32;20436;-52
2022/03/14 08:42:15;;;;;;;46.40;23.63;;;;;;;;;;4370128;32;20265;-50
2022/03/14 08:44:40;;;;;;;85.70;41.07;;;;;;;;;;4375818;32;20668;-50
2022/03/14 08:47:06;;;;;;;43.97;19.60;;;;;;;;;;4381807;32;20263;-51
2022/03/14 08:49:32;;;;;;;30.23;17.00;;;;;;;;;;4380047;32;20514;-50
2022/03/14 08:51:58;;;;;;;39.10;18.73;;;;;;;;;;4381338;32;20249;-50
2022/03/14 08:54:23;;;;;;;27.67;17.33;;;;;;;;;;4384003;32;20306;-50
2022/03/14 08:56:49;;;;;;;50.27;24.23;;;;;;;;;;4384772;32;20453;-49
2022/03/14 08:59:14;;;;;;;26.63;17.30;;;;;;;;;;4381913;32;20296;-50
2022/03/14 09:01:41;;;;;;;33.10;16.30;;;;;;;;;;4379222;32;20242;-51
2022/03/14 09:04:06;;;;;;;54.70;26.57;;;;;;;;;;4376323;32;20210;-51
2022/03/14 09:06:35;;;;;;;48.27;22.77;;;;;;;;;;4375259;32;20352;-51
2022/03/14 09:09:02;;;;;;;20.07;12.90;;;;;;;;;;4378425;32;20225;-50
2022/03/14 09:11:27;;;;;;;23.53;13.27;;;;;;;;;;4382038;32;20214;-51
2022/03/14 09:13:53;;;;;;;30.20;15.40;;;;;;;;;;4382612;32;20308;-51
2022/03/14 09:16:19;;;;;;;20.53;12.90;;;;;;;;;;4367331;32;20638;-51
2022/03/14 09:18:45;;;;;;;26.70;13.73;;;;;;;;;;4377436;32;20274;-50
2022/03/14 09:21:12;;;;;;;50.57;19.17;;;;;;;;;;4383775;32;20646;-51
2022/03/14 09:23:39;;;;;;;69.73;29.13;;;;;;;;;;4380173;32;20653;-51
2022/03/14 09:26:05;;;;;;;19.97;9.47;;;;;;;;;;4368987;32;20237;-50
2022/03/14 09:28:30;;;;;;;12.00;5.47;;;;;;;;;;4386488;32;20435;-51
2022/03/14 09:30:56;;;;;;;9.90;6.33;;;;;;;;;;4373096;32;20335;-51
2022/03/14 09:33:22;;;;;;;11.90;6.20;;;;;;;;;;4386980;32;20237;-50
2022/03/14 09:35:47;;;;;;;16.30;8.83;;;;;;;;;;4373237;32;20241;-50
2022/03/14 09:38:15;;;;;;;12.30;6.97;;;;;;;;;;4374693;32;20808;-50
2022/03/14 09:40:42;;;;;;;16.03;6.10;;;;;;;;;;4370863;32;20202;-52
2022/03/14 09:43:08;;;;;;;8.80;6.63;;;;;;;;;;4370799;32;20305;-50
2022/03/14 09:45:35;;;;;;;11.37;5.83;;;;;;;;;;4371907;32;20301;-52
2022/03/14 09:48:03;;;;;;;11.27;6.57;;;;;;;;;;4372098;32;20223;-51
2022/03/14 09:50:34;;;;;;;11.80;5.27;;;;;;;;;;4362061;32;20222;-52
2022/03/14 09:53:07;;;;;;;8.77;6.17;;;;;;;;;;4371145;32;20221;-52
2022/03/14 09:55:38;;;;;;;25.63;11.10;;;;;;;;;;4372256;32;20299;-50
2022/03/14 09:58:04;;;;;;;19.97;10.50;;;;;;;;;;4371545;32;20707;-51
2022/03/14 10:00:31;;;;;;;10.27;6.30;;;;;;;;;;4372392;32;20277;-50
2022/03/14 10:02:56;;;;;;;9.53;5.90;;;;;;;;;;4376739;32;20229;-51
2022/03/14 10:05:22;;;;;;;7.87;4.73;;;;;;;;;;4387078;32;20817;-52
2022/03/14 10:07:47;;;;;;;14.30;8.10;;;;;;;;;;4388468;32;20866;-50
2022/03/14 10:10:14;;;;;;;9.10;5.37;;;;;;;;;;4379143;32;20323;-50
2022/03/14 10:12:42;;;;;;;8.47;5.17;;;;;;;;;;4363090;32;20571;-50
2022/03/14 10:15:09;;;;;;;12.20;6.50;;;;;;;;;;4371963;32;20273;-51
2022/03/14 10:17:35;;;;;;;32.77;15.23;;;;;;;;;;4379678;32;20252;-50
2022/03/14 10:20:06;;;;;;;10.00;5.87;;;;;;;;;;4375954;32;20285;-53
2022/03/14 10:22:35;;;;;;;14.43;6.87;;;;;;;;;;4378959;32;20339;-51
2022/03/14 10:25:13;;;;;;;11.57;6.03;;;;;;;;;;4379953;32;20249;-51
2022/03/14 10:27:41;;;;;;;8.87;5.27;;;;;;;;;;4373457;32;20385;-51
2022/03/14 10:30:30;;;;;;;8.27;5.30;;;;;;;;;;4378135;32;20218;-50
2022/03/14 10:33:12;;;;;;;47.23;27.13;;;;;;;;;;4382000;32;20632;-50
2022/03/14 10:35:43;;;;;;;28.13;15.90;;;;;;;;;;4368257;32;20295;-51
2022/03/14 10:38:11;;;;;;;25.13;14.10;;;;;;;;;;4382250;32;20464;-51
2022/03/14 10:40:40;;;;;;;10.73;6.90;;;;;;;;;;4379405;32;20582;-50
2022/03/14 10:43:22;;;;;;;7.97;5.17;;;;;;;;;;4371667;32;20241;-52
2022/03/14 10:45:48;;;;;;;7.47;4.93;;;;;;;;;;4384351;32;20226;-51
2022/03/14 10:48:14;;;;;;;8.93;5.47;;;;;;;;;;4373228;32;20265;-50
2022/03/14 10:50:41;;;;;;;12.03;5.03;;;;;;;;;;4368996;32;20305;-53
2022/03/14 10:53:20;;;;;;;13.50;6.40;;;;;;;;;;4354974;32;20641;-51
2022/03/14 10:55:47;;;;;;;25.70;15.03;;;;;;;;;;4378934;32;20221;-52
2022/03/14 10:58:14;;;;;;;21.17;11.83;;;;;;;;;;4359923;32;20408;-52
2022/03/14 11:00:55;;;;;;;7.70;5.27;;;;;;;;;;4362929;32;20234;-51
2022/03/14 11:03:28;;;;;;;8.93;5.83;;;;;;;;;;4365499;32;20245;-50
2022/03/14 11:06:02;;;;;;;13.27;6.10;;;;;;;;;;4373702;32;20305;-52
2022/03/14 11:08:35;;;;;;;10.20;5.80;;;;;;;;;;4376194;32;20245;-51
2022/03/14 11:11:06;;;;;;;12.93;6.90;;;;;;;;;;4381275;32;20705;-51
2022/03/14 11:13:32;;;;;;;8.40;5.57;;;;;;;;;;4369547;32;20401;-52
2022/03/14 11:15:58;;;;;;;19.30;7.73;;;;;;;;;;4378530;32;20300;-52
2022/03/14 11:18:24;;;;;;;10.83;7.13;;;;;;;;;;4371443;32;20261;-53
2022/03/14 11:20:52;;;;;;;15.30;6.30;;;;;;;;;;4369049;32;20260;-51
2022/03/14 11:23:19;;;;;;;8.30;5.13;;;;;;;;;;4382858;32;20367;-50
2022/03/14 11:25:44;;;;;;;35.07;15.57;;;;;;;;;;4383982;32;20237;-51
2022/03/14 11:28:19;;;;;;;11.57;6.60;;;;;;;;;;4375221;32;20238;-51
2022/03/14 11:31:00;;;;;;;48.13;22.27;;;;;;;;;;4364301;32;20233;-51
2022/03/14 11:33:29;;;;;;;73.50;31.97;;;;;;;;;;4379324;32;20233;-51
2022/03/14 11:35:54;;;;;;;24.27;13.10;;;;;;;;;;4374775;32;20641;-52
2022/03/14 11:38:20;;;;;;;12.83;7.47;;;;;;;;;;4387636;32;20245;-52
2022/03/14 11:40:47;;;;;;;9.77;5.77;;;;;;;;;;4387790;32;20214;-51
2022/03/14 11:43:12;;;;;;;8.50;4.97;;;;;;;;;;4383454;32;20377;-52
2022/03/14 11:45:39;;;;;;;8.13;5.57;;;;;;;;;;4387340;32;20296;-53
2022/03/14 11:48:05;;;;;;;5.87;4.57;;;;;;;;;;4373892;32;20778;-52
2022/03/14 11:50:58;;;;;;;11.20;5.63;;;;;;;;;;4388463;32;20260;-52
2022/03/14 11:53:27;;;;;;;11.97;4.90;;;;;;;;;;4381504;32;20283;-54
2022/03/14 11:56:07;;;;;;;13.10;7.67;;;;;;;;;;4384731;32;20364;-53
2022/03/14 11:58:35;;;;;;;11.77;4.60;;;;;;;;;;4378070;32;20388;-52
2022/03/14 12:01:20;;;;;;;27.97;13.83;;;;;;;;;;4387852;32;20332;-52
2022/03/14 12:03:52;;;;;;;9.10;5.40;;;;;;;;;;4374096;32;20206;-52
2022/03/14 12:06:49;;;;;;;17.67;6.00;;;;;;;;;;4373769;32;20218;-52
2022/03/14 12:09:24;;;;;;;9.80;5.93;;;;;;;;;;4384139;32;20270;-52
2022/03/14 12:11:50;;;;;;;9.50;5.93;;;;;;;;;;4384942;32;20300;-53
2022/03/14 12:14:42;;;;;;;10.23;5.07;;;;;;;;;;4373449;32;20218;-51
2022/03/14 12:17:32;;;;;;;9.73;5.30;;;;;;;;;;4359309;32;20264;-52
2022/03/14 12:20:01;;;;;;;8.37;5.73;;;;;;;;;;4387570;32;20532;-52
2022/03/14 12:22:29;;;;;;;9.20;5.17;;;;;;;;;;4381830;32;20268;-52
2022/03/14 12:24:59;;;;;;;7.97;5.00;;;;;;;;;;4385832;32;20304;-52
2022/03/14 12:27:30;;;;;;;8.97;4.93;;;;;;;;;;4382250;32;20288;-51
2022/03/14 12:29:58;;;;;;;6.63;3.97;;;;;;;;;;4375468;32;20241;-51
2022/03/14 12:32:34;;;;;;;8.40;4.57;;;;;;;;;;4387184;32;20366;-51
2022/03/14 12:35:12;;;;;;;9.27;5.27;;;;;;;;;;4387124;32;20617;-51
2022/03/14 12:37:44;;;;;;;9.80;5.37;;;;;;;;;;4377671;32;20551;-51
2022/03/14 12:40:19;;;;;;;10.77;6.37;;;;;;;;;;4388472;32;20697;-51
2022/03/14 12:42:47;;;;;;;9.23;3.93;;;;;;;;;;4374928;32;20221;-52
2022/03/14 12:45:20;;;;;;;9.33;4.57;;;;;;;;;;4385662;32;20276;-52
2022/03/14 12:47:57;;;;;;;6.33;4.40;;;;;;;;;;4388189;32;20250;-52
2022/03/14 12:50:48;;;;;;;8.53;4.93;;;;;;;;;;4383291;32;20339;-51
2022/03/14 12:53:18;;;;;;;8.80;4.50;;;;;;;;;;4383398;32;20739;-52
2022/03/14 12:55:49;;;;;;;8.80;4.40;;;;;;;;;;4388279;32;20480;-52
2022/03/14 12:58:22;;;;;;;7.33;4.40;;;;;;;;;;4387710;32;20606;-52
2022/03/14 13:00:49;;;;;;;8.07;5.13;;;;;;;;;;4387823;32;20202;-52
2022/03/14 13:03:23;;;;;;;4.63;3.33;;;;;;;;;;4387214;32;20253;-52
2022/03/14 13:05:50;;;;;;;5.37;3.90;;;;;;;;;;4366321;32;20221;-53
2022/03/14 13:08:17;;;;;;;9.17;4.37;;;;;;;;;;4353590;32;20264;-51
2022/03/14 13:10:47;;;;;;;9.10;5.33;;;;;;;;;;4362263;32;20638;-53
2022/03/14 13:13:21;;;;;;;8.43;4.87;;;;;;;;;;4379777;32;20307;-51
2022/03/14 13:16:08;;;;;;;7.13;4.50;;;;;;;;;;4371656;32;20237;-52
2022/03/14 13:18:35;;;;;;;16.17;7.37;;;;;;;;;;4385375;32;20255;-52
2022/03/14 13:21:09;;;;;;;6.93;4.10;;;;;;;;;;4387137;32;20630;-52
2022/03/14 13:23:34;;;;;;;5.50;3.77;;;;;;;;;;4384140;32;20310;-52
2022/03/14 13:26:00;;;;;;;9.37;3.80;;;;;;;;;;4372968;32;20320;-51
2022/03/14 13:28:30;;;;;;;5.67;3.43;;;;;;;;;;4372256;32;20268;-53
2022/03/14 13:30:57;;;;;;;7.03;4.37;;;;;;;;;;4370292;32;20266;-52
2022/03/14 13:33:28;;;;;;;10.80;5.27;;;;;;;;;;4382199;32;20740;-53
2022/03/14 13:35:56;;;;;;;6.93;4.73;;;;;;;;;;4373787;32;20277;-52
2022/03/14 13:38:32;;;;;;;5.87;4.37;;;;;;;;;;4383245;32;20729;-53
2022/03/14 13:40:58;;;;;;;11.27;5.57;;;;;;;;;;4386816;32;20720;-53
2022/03/14 13:43:25;;;;;;;9.60;4.80;;;;;;;;;;4386312;32;20375;-52
2022/03/14 13:45:51;;;;;;;48.30;23.97;;;;;;;;;;4386438;32;20725;-52
2022/03/14 13:48:21;;;;;;;8.60;5.83;;;;;;;;;;4372700;32;20262;-53
2022/03/14 13:50:47;;;;;;;8.23;5.30;;;;;;;;;;4374910;32;20241;-52
2022/03/14 13:53:22;;;;;;;8.33;4.40;;;;;;;;;;4383008;32;20246;-54
2022/03/14 13:56:10;;;;;;;7.43;4.83;;;;;;;;;;4386904;32;20440;-53
2022/03/14 13:58:36;;;;;;;8.67;3.47;;;;;;;;;;4386774;32;20724;-52
2022/03/14 14:01:02;;;;;;;12.10;4.93;;;;;;;;;;4386250;32;20350;-53
2022/03/14 14:03:30;;;;;;;7.90;3.93;;;;;;;;;;4381304;32;20376;-52
2022/03/14 14:06:15;;;;;;;13.43;8.13;;;;;;;;;;4372369;32;20290;-53
2022/03/14 14:08:41;;;;;;;19.87;7.90;;;;;;;;;;4361080;32;20234;-52
2022/03/14 14:11:07;;;;;;;15.37;9.33;;;;;;;;;;4347168;32;20309;-53
2022/03/14 14:13:47;;;;;;;24.40;10.97;;;;;;;;;;4383103;32;20348;-53
2022/03/14 14:16:22;;;;;;;12.03;6.10;;;;;;;;;;4381597;32;20284;-53
2022/03/14 14:19:11;;;;;;;9.47;6.67;;;;;;;;;;4371992;32;20617;-52
2022/03/14 14:21:37;;;;;;;7.20;4.53;;;;;;;;;;4371771;32;20592;-53
2022/03/14 14:24:06;;;;;;;5.00;3.40;;;;;;;;;;4383445;32;20210;-52
2022/03/14 14:26:32;;;;;;;20.93;10.23;;;;;;;;;;4372924;32;20248;-52
2022/03/14 14:28:58;;;;;;;9.00;6.20;;;;;;;;;;4385765;32;20672;-53